Time;durP1;ratioP1;P1;durP2;ratioP2;P2;SDS_P1;SDS_P2;PMS_P1;PMS_P2;Temp;Humidity;BMP_temperature;BMP_pressure;BME280_temperature;BME280_humidity;BME280_pressure;Samples;Min_cycle;Max_cycle;Signal;HPM_P1;HPM_P2
2023/03/03 00:01:25;;;;;;;;;;;;;;;;;;5074440;28;19962;-73
2023/03/03 00:03:51;;;;;;;;;;;;;;;;;;5074955;28;19909;-73
2023/03/03 00:06:17;;;;;;;;;;;;;;;;;;5074415;28;20430;-73
2023/03/03 00:08:43;;;;;;;;;;;;;;;;;;5074398;28;20369;-73
2023/03/03 00:11:09;;;;;;;;;;;;;;;;;;5074575;28;20378;-73
2023/03/03 00:13:35;;;;;;;;;;;;;;;;;;5074301;28;19958;-73
2023/03/03 00:16:01;;;;;;;;;;;;;;;;;;5074249;28;19920;-72
2023/03/03 00:18:27;;;;;;;;;;;;;;;;;;5074616;28;19930;-73
2023/03/03 00:20:53;;;;;;;;;;;;;;;;;;5074388;28;19959;-72
2023/03/03 00:23:19;;;;;;;;;;;;;;;;;;5074367;28;19922;-73
2023/03/03 00:25:45;;;;;;;;;;;;;;;;;;5074176;28;19958;-72
2023/03/03 00:28:11;;;;;;;;;;;;;;;;;;5056124;28;19912;-73
2023/03/03 00:30:37;;;;;;;;;;;;;;;;;;5074238;28;19909;-72
2023/03/03 00:33:03;;;;;;;;;;;;;;;;;;5074305;28;20382;-73
2023/03/03 00:35:29;;;;;;;;;;;;;;;;;;5073930;28;19991;-73
2023/03/03 00:37:55;;;;;;;;;;;;;;;;;;5074032;28;19940;-72
2023/03/03 00:40:21;;;;;;;;;;;;;;;;;;5073376;28;19924;-73
2023/03/03 00:42:47;;;;;;;;;;;;;;;;;;5073957;28;20017;-73
2023/03/03 00:45:13;;;;;;;;;;;;;;;;;;5073884;28;19916;-73
2023/03/03 00:47:41;;;;;;;;;;;;;;;;;;5073271;28;20208;-73
2023/03/03 00:50:07;;;;;;;;;;;;;;;;;;5073911;28;19909;-73
2023/03/03 00:52:32;;;;;;;;;;;;;;;;;;5073754;28;19952;-73
2023/03/03 00:54:58;;;;;;;;;;;;;;;;;;5055540;28;20316;-72
2023/03/03 00:57:24;;;;;;;;;;;;;;;;;;5073579;28;19908;-72
2023/03/03 00:59:50;;;;;;;;;;;;;;;;;;5073804;28;20031;-73
2023/03/03 01:02:16;;;;;;;;;;;;;;;;;;5073789;28;19931;-72
2023/03/03 01:04:42;;;;;;;;;;;;;;;;;;5054864;28;20269;-73
2023/03/03 01:07:08;;;;;;;;;;;;;;;;;;5073767;28;19908;-73
2023/03/03 01:09:34;;;;;;;;;;;;;;;;;;5073566;28;20345;-72
2023/03/03 01:12:00;;;;;;;;;;;;;;;;;;5073966;28;20501;-73
2023/03/03 01:14:26;;;;;;;;;;;;;;;;;;5073522;28;20393;-73
2023/03/03 01:16:52;;;;;;;;;;;;;;;;;;5073514;28;19909;-72
2023/03/03 01:19:18;;;;;;;;;;;;;;;;;;5073451;28;20453;-73
2023/03/03 01:21:44;;;;;;;;;;;;;;;;;;5073417;28;19956;-73
2023/03/03 01:24:10;;;;;;;;;;;;;;;;;;5073607;28;19932;-73
2023/03/03 01:26:36;;;;;;;;;;;;;;;;;;5055367;28;19959;-72
2023/03/03 01:29:01;;;;;;;;;;;;;;;;;;5055380;28;19939;-73
2023/03/03 01:31:27;;;;;;;;;;;;;;;;;;5055325;28;19952;-73
2023/03/03 01:33:53;;;;;;;;;;;;;;;;;;5073341;28;19908;-73
2023/03/03 01:36:19;;;;;;;;;;;;;;;;;;5073473;28;19916;-72
2023/03/03 01:38:45;;;;;;;;;;;;;;;;;;5073523;28;19915;-73
2023/03/03 01:41:11;;;;;;;;;;;;;;;;;;5072964;28;19924;-73
2023/03/03 01:43:37;;;;;;;;;;;;;;;;;;5073223;28;19909;-73
2023/03/03 01:46:03;;;;;;;;;;;;;;;;;;5073363;28;19915;-73
2023/03/03 01:48:29;;;;;;;;;;;;;;;;;;5073169;28;19915;-73
2023/03/03 01:50:55;;;;;;;;;;;;;;;;;;5055176;28;19912;-73
2023/03/03 01:53:21;;;;;;;;;;;;;;;;;;5073154;28;19913;-72
2023/03/03 01:55:47;;;;;;;;;;;;;;;;;;5073003;28;20421;-71
2023/03/03 01:58:13;;;;;;;;;;;;;;;;;;5073126;28;19951;-73
2023/03/03 02:00:39;;;;;;;;;;;;;;;;;;5055009;28;19936;-73
2023/03/03 02:03:05;;;;;;;;;;;;;;;;;;5073045;28;19995;-73
2023/03/03 02:05:30;;;;;;;;;;;;;;;;;;5055047;28;19912;-73
2023/03/03 02:07:56;;;;;;;;;;;;;;;;;;5072982;28;19947;-73
2023/03/03 02:10:22;;;;;;;;;;;;;;;;;;5073310;28;19915;-72
2023/03/03 02:12:48;;;;;;;;;;;;;;;;;;5073038;28;19908;-73
2023/03/03 02:15:14;;;;;;;;;;;;;;;;;;5072986;28;19962;-73
2023/03/03 02:17:40;;;;;;;;;;;;;;;;;;5076596;28;20002;-71
2023/03/03 02:20:06;;;;;;;;;;;;;;;;;;5076411;28;19959;-75
2023/03/03 02:22:32;;;;;;;;;;;;;;;;;;5076778;28;19908;-72
2023/03/03 02:24:58;;;;;;;;;;;;;;;;;;5076512;28;19916;-75
2023/03/03 02:27:24;;;;;;;;;;;;;;;;;;5076364;28;19958;-72
2023/03/03 02:29:51;;;;;;;;;;;;;;;;;;5076341;28;20280;-75
2023/03/03 02:32:17;;;;;;;;;;;;;;;;;;5076724;28;19909;-75
2023/03/03 02:34:43;;;;;;;;;;;;;;;;;;5076482;28;19909;-73
2023/03/03 02:37:09;;;;;;;;;;;;;;;;;;5076421;28;19915;-72
2023/03/03 02:39:35;;;;;;;;;;;;;;;;;;5076174;28;19916;-75
2023/03/03 02:42:01;;;;;;;;;;;;;;;;;;5058091;28;19917;-73
2023/03/03 02:44:27;;;;;;;;;;;;;;;;;;5076069;28;19934;-73
2023/03/03 02:46:53;;;;;;;;;;;;;;;;;;5076288;28;19962;-72
2023/03/03 02:49:19;;;;;;;;;;;;;;;;;;5057979;28;19915;-73
2023/03/03 02:51:45;;;;;;;;;;;;;;;;;;5075955;28;19995;-72
2023/03/03 02:54:11;;;;;;;;;;;;;;;;;;5075916;28;19912;-73
2023/03/03 02:56:36;;;;;;;;;;;;;;;;;;5075933;28;19912;-73
2023/03/03 02:59:02;;;;;;;;;;;;;;;;;;5076024;28;19916;-73
2023/03/03 03:01:30;;;;;;;;;;;;;;;;;;5075711;28;19917;-73
2023/03/03 03:03:56;;;;;;;;;;;;;;;;;;5075707;28;19909;-73
2023/03/03 03:06:22;;;;;;;;;;;;;;;;;;5076007;28;19915;-73
2023/03/03 03:08:48;;;;;;;;;;;;;;;;;;5075638;28;19908;-72
2023/03/03 03:11:14;;;;;;;;;;;;;;;;;;5075620;28;20369;-72
2023/03/03 03:13:40;;;;;;;;;;;;;;;;;;5075510;28;20380;-73
2023/03/03 03:16:06;;;;;;;;;;;;;;;;;;5057436;28;19912;-72
2023/03/03 03:18:32;;;;;;;;;;;;;;;;;;5057397;28;19960;-72
2023/03/03 03:20:58;;;;;;;;;;;;;;;;;;5057305;28;19919;-73
2023/03/03 03:23:24;;;;;;;;;;;;;;;;;;5075560;28;19916;-73
2023/03/03 03:25:50;;;;;;;;;;;;;;;;;;5075342;28;19908;-73
2023/03/03 03:28:16;;;;;;;;;;;;;;;;;;5074949;28;20361;-73
2023/03/03 03:30:43;;;;;;;;;;;;;;;;;;5075211;28;19908;-72
2023/03/03 03:33:09;;;;;;;;;;;;;;;;;;5075130;28;19909;-73
2023/03/03 03:35:35;;;;;;;;;;;;;;;;;;5075265;28;20276;-73
2023/03/03 03:38:00;;;;;;;;;;;;;;;;;;5075092;28;19912;-72
2023/03/03 03:40:26;;;;;;;;;;;;;;;;;;5074680;28;19927;-73
2023/03/03 03:42:52;;;;;;;;;;;;;;;;;;5075041;28;19908;-72
2023/03/03 03:45:18;;;;;;;;;;;;;;;;;;5074867;28;19908;-73
2023/03/03 03:47:44;;;;;;;;;;;;;;;;;;5074834;28;20342;-73
2023/03/03 03:50:10;;;;;;;;;;;;;;;;;;5056841;28;19958;-73
2023/03/03 03:52:36;;;;;;;;;;;;;;;;;;5056811;28;19909;-72
2023/03/03 03:55:02;;;;;;;;;;;;;;;;;;5075306;28;20378;-73
2023/03/03 03:57:28;;;;;;;;;;;;;;;;;;5074543;28;19915;-73
2023/03/03 03:59:54;;;;;;;;;;;;;;;;;;5074586;28;19999;-72
2023/03/03 04:02:20;;;;;;;;;;;;;;;;;;5074543;28;19908;-73
2023/03/03 04:04:46;;;;;;;;;;;;;;;;;;5074934;28;19908;-73
2023/03/03 04:07:12;;;;;;;;;;;;;;;;;;5074458;28;19909;-73
2023/03/03 04:09:37;;;;;;;;;;;;;;;;;;5074409;28;19908;-73
2023/03/03 04:12:03;;;;;;;;;;;;;;;;;;5074361;28;19908;-73
2023/03/03 04:14:29;;;;;;;;;;;;;;;;;;5074579;28;20349;-73
2023/03/03 04:16:55;;;;;;;;;;;;;;;;;;5074282;28;19908;-73
2023/03/03 04:19:21;;;;;;;;;;;;;;;;;;5074241;28;20425;-73
2023/03/03 04:21:47;;;;;;;;;;;;;;;;;;5074156;28;19919;-72
2023/03/03 04:24:13;;;;;;;;;;;;;;;;;;5074586;28;19915;-73
2023/03/03 04:26:39;;;;;;;;;;;;;;;;;;5074430;28;19999;-74
2023/03/03 04:29:05;;;;;;;;;;;;;;;;;;5074309;28;20394;-72
2023/03/03 04:31:31;;;;;;;;;;;;;;;;;;5074071;28;20422;-72
2023/03/03 04:33:57;;;;;;;;;;;;;;;;;;5074102;28;20349;-73
2023/03/03 04:36:23;;;;;;;;;;;;;;;;;;5074255;28;20253;-73
2023/03/03 04:38:49;;;;;;;;;;;;;;;;;;5074209;28;19993;-73
2023/03/03 04:41:15;;;;;;;;;;;;;;;;;;5073867;28;20323;-72
2023/03/03 04:43:41;;;;;;;;;;;;;;;;;;5073854;28;20421;-73
2023/03/03 04:46:06;;;;;;;;;;;;;;;;;;5074122;28;19916;-73
2023/03/03 04:48:32;;;;;;;;;;;;;;;;;;5073793;28;19909;-73
2023/03/03 04:50:58;;;;;;;;;;;;;;;;;;5055809;28;19908;-72
2023/03/03 04:53:24;;;;;;;;;;;;;;;;;;5073717;28;19909;-72
2023/03/03 04:55:50;;;;;;;;;;;;;;;;;;5073659;28;20361;-73
2023/03/03 04:58:18;;;;;;;;;;;;;;;;;;5073982;28;20008;-73
2023/03/03 05:00:43;;;;;;;;;;;;;;;;;;5073794;28;19919;-73
2023/03/03 05:03:09;;;;;;;;;;;;;;;;;;5073637;28;20375;-72
2023/03/03 05:05:35;;;;;;;;;;;;;;;;;;5073619;28;19916;-73
2023/03/03 05:08:01;;;;;;;;;;;;;;;;;;5073659;28;19917;-73
2023/03/03 05:10:27;;;;;;;;;;;;;;;;;;5073544;28;19915;-72
2023/03/03 05:12:53;;;;;;;;;;;;;;;;;;5055573;28;19909;-72
2023/03/03 05:15:19;;;;;;;;;;;;;;;;;;5073535;28;19908;-73
2023/03/03 05:17:45;;;;;;;;;;;;;;;;;;5073522;28;19999;-73
2023/03/03 05:20:11;;;;;;;;;;;;;;;;;;5073520;28;19948;-73
2023/03/03 05:22:37;;;;;;;;;;;;;;;;;;5073457;28;20326;-73
2023/03/03 05:25:03;;;;;;;;;;;;;;;;;;5073498;28;20422;-73
2023/03/03 05:27:29;;;;;;;;;;;;;;;;;;5073414;28;19915;-73
2023/03/03 05:29:55;;;;;;;;;;;;;;;;;;5073413;28;19909;-73
2023/03/03 05:32:21;;;;;;;;;;;;;;;;;;5055435;28;19916;-73
2023/03/03 05:34:46;;;;;;;;;;;;;;;;;;5073470;28;20426;-73
2023/03/03 05:37:14;;;;;;;;;;;;;;;;;;5073282;28;19910;-73
2023/03/03 05:39:40;;;;;;;;;;;;;;;;;;5073109;28;19908;-73
2023/03/03 05:42:06;;;;;;;;;;;;;;;;;;5073339;28;20335;-73
2023/03/03 05:44:32;;;;;;;;;;;;;;;;;;5073250;28;19909;-73
2023/03/03 05:46:58;;;;;;;;;;;;;;;;;;5073213;28;19915;-73
2023/03/03 05:49:24;;;;;;;;;;;;;;;;;;5073321;28;19909;-72
2023/03/03 05:51:50;;;;;;;;;;;;;;;;;;5075915;28;19909;-73
2023/03/03 05:54:15;;;;;;;;;;;;;;;;;;5059006;28;19908;-73
2023/03/03 05:56:41;;;;;;;;;;;;;;;;;;5077094;28;19913;-73
2023/03/03 05:59:07;;;;;;;;;;;;;;;;;;5076856;28;19931;-73
2023/03/03 06:01:33;;;;;;;;;;;;;;;;;;5076846;28;19913;-73
2023/03/03 06:03:59;;;;;;;;;;;;;;;;;;5076941;28;20304;-73
2023/03/03 06:06:27;;;;;;;;;;;;;;;;;;5076791;28;19952;-73
2023/03/03 06:08:53;;;;;;;;;;;;;;;;;;5077026;28;19958;-73
2023/03/03 06:11:19;;;;;;;;;;;;;;;;;;5076705;28;19908;-73
2023/03/03 06:13:45;;;;;;;;;;;;;;;;;;5076673;28;20372;-73
2023/03/03 06:16:11;;;;;;;;;;;;;;;;;;5076663;28;19997;-72
2023/03/03 06:18:36;;;;;;;;;;;;;;;;;;5076597;28;20364;-73
2023/03/03 06:21:02;;;;;;;;;;;;;;;;;;5076700;28;19920;-73
2023/03/03 06:23:28;;;;;;;;;;;;;;;;;;5076445;28;19908;-73
2023/03/03 06:25:54;;;;;;;;;;;;;;;;;;5076384;28;19908;-73
2023/03/03 06:28:20;;;;;;;;;;;;;;;;;;5076350;28;19931;-73
2023/03/03 06:30:46;;;;;;;;;;;;;;;;;;5076552;28;20365;-73
2023/03/03 06:33:12;;;;;;;;;;;;;;;;;;5076380;28;19991;-73
2023/03/03 06:35:38;;;;;;;;;;;;;;;;;;5076239;28;20304;-73
2023/03/03 06:38:04;;;;;;;;;;;;;;;;;;5076195;28;20466;-72
2023/03/03 06:40:30;;;;;;;;;;;;;;;;;;5054604;28;20445;-73
2023/03/03 06:42:56;;;;;;;;;;;;;;;;;;5056356;28;19951;-73
2023/03/03 06:45:22;;;;;;;;;;;;;;;;;;5056238;28;20285;-73
2023/03/03 06:47:48;;;;;;;;;;;;;;;;;;5055957;28;20324;-72
2023/03/03 06:50:14;;;;;;;;;;;;;;;;;;5055847;28;19931;-74
2023/03/03 06:52:40;;;;;;;;;;;;;;;;;;5055857;28;20277;-72
2023/03/03 06:55:05;;;;;;;;;;;;;;;;;;5055858;28;19948;-72
2023/03/03 06:57:31;;;;;;;;;;;;;;;;;;5055878;28;19912;-73
2023/03/03 06:59:57;;;;;;;;;;;;;;;;;;5055803;28;19909;-73
2023/03/03 07:02:23;;;;;;;;;;;;;;;;;;5054592;28;19915;-73
2023/03/03 07:04:49;;;;;;;;;;;;;;;;;;5055756;28;20012;-72
2023/03/03 07:07:15;;;;;;;;;;;;;;;;;;5055922;28;19909;-73
2023/03/03 07:09:41;;;;;;;;;;;;;;;;;;5055861;28;19912;-73
2023/03/03 07:12:07;;;;;;;;;;;;;;;;;;5055643;28;20007;-73
2023/03/03 07:14:33;;;;;;;;;;;;;;;;;;5054033;28;19947;-73
2023/03/03 07:16:59;;;;;;;;;;;;;;;;;;5055515;28;19962;-73
2023/03/03 07:19:25;;;;;;;;;;;;;;;;;;5055573;28;19908;-73
2023/03/03 07:21:51;;;;;;;;;;;;;;;;;;5055482;28;19913;-73
2023/03/03 07:24:17;;;;;;;;;;;;;;;;;;5054098;28;19908;-73
2023/03/03 07:26:43;;;;;;;;;;;;;;;;;;5055480;28;19963;-73
2023/03/03 07:29:09;;;;;;;;;;;;;;;;;;5053922;28;19932;-73
2023/03/03 07:31:35;;;;;;;;;;;;;;;;;;5055259;28;20266;-73
2023/03/03 07:34:01;;;;;;;;;;;;;;;;;;5055231;28;19992;-73
2023/03/03 07:36:27;;;;;;;;;;;;;;;;;;5055278;28;20304;-73
2023/03/03 07:38:53;;;;;;;;;;;;;;;;;;5055119;28;19909;-73
2023/03/03 07:41:19;;;;;;;;;;;;;;;;;;5069498;28;19920;-73
2023/03/03 07:43:46;;;;;;;;;;;;;;;;;;5074966;28;19908;-73
2023/03/03 07:46:12;;;;;;;;;;;;;;;;;;5074906;28;19960;-72
2023/03/03 07:48:39;;;;;;;;;;;;;;;;;;5075002;28;20338;-74
2023/03/03 07:51:05;;;;;;;;;;;;;;;;;;5074764;28;20261;-73
2023/03/03 07:53:33;;;;;;;;;;;;;;;;;;5075125;28;19958;-73
2023/03/03 07:55:59;;;;;;;;;;;;;;;;;;5075039;28;20342;-74
2023/03/03 07:58:25;;;;;;;;;;;;;;;;;;5074954;28;19914;-73
2023/03/03 08:00:51;;;;;;;;;;;;;;;;;;5074582;28;19966;-73
2023/03/03 08:03:17;;;;;;;;;;;;;;;;;;5074588;28;19916;-73
2023/03/03 08:05:43;;;;;;;;;;;;;;;;;;5074973;28;19915;-74
2023/03/03 08:08:09;;;;;;;;;;;;;;;;;;5074678;28;19908;-74
2023/03/03 08:10:35;;;;;;;;;;;;;;;;;;5056541;28;19916;-74
2023/03/03 08:13:01;;;;;;;;;;;;;;;;;;5074312;28;19913;-73
2023/03/03 08:15:27;;;;;;;;;;;;;;;;;;5074280;28;19908;-73
2023/03/03 08:17:55;;;;;;;;;;;;;;;;;;5074216;28;19987;-73
2023/03/03 08:20:21;;;;;;;;;;;;;;;;;;5074521;28;19916;-74
2023/03/03 08:22:47;;;;;;;;;;;;;;;;;;5074171;28;19909;-74
2023/03/03 08:25:13;;;;;;;;;;;;;;;;;;5074402;28;19948;-74
2023/03/03 08:27:39;;;;;;;;;;;;;;;;;;5074083;28;19916;-73
2023/03/03 08:30:05;;;;;;;;;;;;;;;;;;5074189;28;19909;-73
2023/03/03 08:32:31;;;;;;;;;;;;;;;;;;5074059;28;19977;-72
2023/03/03 08:34:57;;;;;;;;;;;;;;;;;;5056064;28;19985;-73
2023/03/03 08:37:23;;;;;;;;;;;;;;;;;;5074336;28;20389;-73
2023/03/03 08:39:49;;;;;;;;;;;;;;;;;;5073731;28;19912;-73
2023/03/03 08:42:14;;;;;;;;;;;;;;;;;;5055632;28;20300;-72
2023/03/03 08:44:40;;;;;;;;;;;;;;;;;;5055893;28;19915;-74
2023/03/03 08:47:06;;;;;;;;;;;;;;;;;;5073882;28;19909;-73
2023/03/03 08:49:32;;;;;;;;;;;;;;;;;;5074052;28;19908;-73
2023/03/03 08:51:59;;;;;;;;;;;;;;;;;;5055768;28;19916;-73
2023/03/03 08:54:25;;;;;;;;;;;;;;;;;;5055813;28;20003;-73
2023/03/03 08:56:51;;;;;;;;;;;;;;;;;;5073683;28;19955;-73
2023/03/03 08:59:18;;;;;;;;;;;;;;;;;;5056653;28;19916;-73
2023/03/03 09:01:44;;;;;;;;;;;;;;;;;;5073615;28;19962;-73
2023/03/03 09:04:10;;;;;;;;;;;;;;;;;;5073678;28;19915;-74
2023/03/03 09:06:36;;;;;;;;;;;;;;;;;;5073913;28;20004;-74
2023/03/03 09:09:02;;;;;;;;;;;;;;;;;;5073629;28;19947;-75
2023/03/03 09:11:28;;;;;;;;;;;;;;;;;;5073720;28;19998;-73
2023/03/03 09:13:54;;;;;;;;;;;;;;;;;;5055620;28;19912;-74
2023/03/03 09:16:21;;;;;;;;;;;;;;;;;;5055765;28;19915;-74
2023/03/03 09:18:47;;;;;;;;;;;;;;;;;;5055564;28;19908;-74
2023/03/03 09:21:13;;;;;;;;;;;;;;;;;;5073387;28;20012;-73
2023/03/03 09:23:39;;;;;;;;;;;;;;;;;;5055439;28;19958;-75
2023/03/03 09:26:05;;;;;;;;;;;;;;;;;;5075037;28;19916;-74
2023/03/03 09:28:31;;;;;;;;;;;;;;;;;;5077532;28;20280;-73
2023/03/03 09:30:57;;;;;;;;;;;;;;;;;;5077516;28;20462;-73
2023/03/03 09:33:23;;;;;;;;;;;;;;;;;;5077724;28;19931;-74
2023/03/03 09:35:49;;;;;;;;;;;;;;;;;;5059440;28;19942;-73
2023/03/03 09:38:15;;;;;;;;;;;;;;;;;;5077387;28;19908;-73
2023/03/03 09:40:41;;;;;;;;;;;;;;;;;;5077187;28;19970;-74
2023/03/03 09:43:07;;;;;;;;;;;;;;;;;;5077476;28;19908;-73
2023/03/03 09:45:33;;;;;;;;;;;;;;;;;;5077268;28;19915;-74
2023/03/03 09:47:59;;;;;;;;;;;;;;;;;;5077211;28;19915;-74
2023/03/03 09:50:25;;;;;;;;;;;;;;;;;;5077146;28;19908;-73
2023/03/03 09:52:51;;;;;;;;;;;;;;;;;;5077146;28;19913;-74
2023/03/03 09:55:17;;;;;;;;;;;;;;;;;;5077137;28;19912;-73
2023/03/03 09:57:43;;;;;;;;;;;;;;;;;;5076957;28;20270;-74
2023/03/03 10:00:09;;;;;;;;;;;;;;;;;;5058965;28;20261;-75
2023/03/03 10:02:35;;;;;;;;;;;;;;;;;;5076929;28;19961;-75
2023/03/03 10:05:01;;;;;;;;;;;;;;;;;;5077090;28;19958;-74
2023/03/03 10:07:27;;;;;;;;;;;;;;;;;;5077105;28;20347;-74
2023/03/03 10:09:53;;;;;;;;;;;;;;;;;;5076850;28;19908;-75
2023/03/03 10:12:21;;;;;;;;;;;;;;;;;;5076732;28;19908;-75
2023/03/03 10:14:47;;;;;;;;;;;;;;;;;;5058465;28;20342;-75
2023/03/03 10:17:13;;;;;;;;;;;;;;;;;;5076647;28;19909;-75
2023/03/03 10:19:39;;;;;;;;;;;;;;;;;;5076748;28;20284;-75
2023/03/03 10:22:05;;;;;;;;;;;;;;;;;;5076527;28;19920;-75
2023/03/03 10:24:32;;;;;;;;;;;;;;;;;;5076889;28;19912;-75
2023/03/03 10:26:58;;;;;;;;;;;;;;;;;;5076936;28;19908;-75
2023/03/03 10:29:25;;;;;;;;;;;;;;;;;;5076518;28;19931;-75
2023/03/03 10:31:51;;;;;;;;;;;;;;;;;;5076400;28;19909;-75
2023/03/03 10:34:17;;;;;;;;;;;;;;;;;;5076464;28;20376;-75
2023/03/03 10:36:43;;;;;;;;;;;;;;;;;;5058202;28;19934;-74
2023/03/03 10:39:09;;;;;;;;;;;;;;;;;;5076557;28;19912;-75
2023/03/03 10:41:34;;;;;;;;;;;;;;;;;;5075743;28;19966;-75
2023/03/03 10:44:00;;;;;;;;;;;;;;;;;;5076499;28;19909;-75
2023/03/03 10:46:26;;;;;;;;;;;;;;;;;;5076082;28;19908;-75
2023/03/03 10:48:52;;;;;;;;;;;;;;;;;;5075965;28;20440;-72
2023/03/03 10:51:18;;;;;;;;;;;;;;;;;;5076322;28;19944;-74
2023/03/03 10:53:44;;;;;;;;;;;;;;;;;;5076740;28;19909;-75
2023/03/03 10:56:10;;;;;;;;;;;;;;;;;;5075890;28;20431;-75
2023/03/03 10:58:36;;;;;;;;;;;;;;;;;;5075861;28;19908;-75
2023/03/03 11:01:02;;;;;;;;;;;;;;;;;;5075811;28;20013;-75
2023/03/03 11:03:28;;;;;;;;;;;;;;;;;;5076042;28;19915;-74
2023/03/03 11:05:54;;;;;;;;;;;;;;;;;;5075762;28;19970;-74
2023/03/03 11:08:20;;;;;;;;;;;;;;;;;;5075902;28;19974;-74
2023/03/03 11:10:46;;;;;;;;;;;;;;;;;;5076334;28;20361;-75
2023/03/03 11:13:12;;;;;;;;;;;;;;;;;;5075695;28;19920;-75
2023/03/03 11:15:38;;;;;;;;;;;;;;;;;;5075908;28;19913;-74
2023/03/03 11:18:04;;;;;;;;;;;;;;;;;;5075935;28;19915;-74
2023/03/03 11:20:30;;;;;;;;;;;;;;;;;;5075440;28;19935;-75
2023/03/03 11:22:57;;;;;;;;;;;;;;;;;;5075490;28;19909;-75
2023/03/03 11:25:23;;;;;;;;;;;;;;;;;;5075420;28;19908;-74
2023/03/03 11:27:48;;;;;;;;;;;;;;;;;;5075333;28;19957;-75
2023/03/03 11:30:15;;;;;;;;;;;;;;;;;;5075272;28;20329;-75
2023/03/03 11:32:41;;;;;;;;;;;;;;;;;;5075392;28;19957;-74
2023/03/03 11:35:07;;;;;;;;;;;;;;;;;;5075167;28;19912;-75
2023/03/03 11:37:33;;;;;;;;;;;;;;;;;;5075171;28;19909;-75
2023/03/03 11:39:59;;;;;;;;;;;;;;;;;;5075056;28;19924;-73
2023/03/03 11:42:25;;;;;;;;;;;;;;;;;;5075432;28;20280;-73
2023/03/03 11:44:51;;;;;;;;;;;;;;;;;;5056382;28;20375;-73
2023/03/03 11:47:18;;;;;;;;;;;;;;;;;;5075137;28;19908;-75
2023/03/03 11:49:44;;;;;;;;;;;;;;;;;;5074355;28;20280;-75
2023/03/03 11:52:10;;;;;;;;;;;;;;;;;;5073566;28;19909;-74
2023/03/03 11:54:36;;;;;;;;;;;;;;;;;;5074036;28;20008;-73
2023/03/03 11:57:02;;;;;;;;;;;;;;;;;;5092237;28;19951;-73
2023/03/03 11:59:29;;;;;;;;;;;;;;;;;;5094965;28;19908;-73
2023/03/03 12:01:55;;;;;;;;;;;;;;;;;;5095205;28;19912;-73
2023/03/03 12:04:21;;;;;;;;;;;;;;;;;;5095238;28;19915;-73
2023/03/03 12:06:47;;;;;;;;;;;;;;;;;;5094970;28;19908;-73
2023/03/03 12:09:12;;;;;;;;;;;;;;;;;;5094745;28;19916;-73
2023/03/03 12:11:38;;;;;;;;;;;;;;;;;;5095109;28;20253;-73
2023/03/03 12:14:04;;;;;;;;;;;;;;;;;;5076479;28;20365;-73
2023/03/03 12:16:30;;;;;;;;;;;;;;;;;;5094931;28;19927;-74
2023/03/03 12:18:56;;;;;;;;;;;;;;;;;;5094772;28;19915;-74
2023/03/03 12:21:22;;;;;;;;;;;;;;;;;;5094492;28;19934;-74
2023/03/03 12:23:48;;;;;;;;;;;;;;;;;;5094997;28;20257;-73
2023/03/03 12:26:14;;;;;;;;;;;;;;;;;;5094483;28;20280;-73
2023/03/03 12:28:40;;;;;;;;;;;;;;;;;;5094613;28;19914;-73
2023/03/03 12:31:06;;;;;;;;;;;;;;;;;;5094401;28;19915;-73
2023/03/03 12:33:32;;;;;;;;;;;;;;;;;;5094426;28;19912;-74
2023/03/03 12:35:58;;;;;;;;;;;;;;;;;;5094481;28;19930;-73
2023/03/03 12:38:24;;;;;;;;;;;;;;;;;;5094562;28;19915;-73
2023/03/03 12:40:51;;;;;;;;;;;;;;;;;;5094595;28;19920;-74
2023/03/03 12:43:17;;;;;;;;;;;;;;;;;;5094239;28;19958;-73
2023/03/03 12:45:43;;;;;;;;;;;;;;;;;;5094672;28;20361;-73
2023/03/03 12:48:09;;;;;;;;;;;;;;;;;;5094608;28;19908;-73
2023/03/03 12:50:35;;;;;;;;;;;;;;;;;;5094429;28;20440;-73
2023/03/03 12:53:01;;;;;;;;;;;;;;;;;;5094288;28;19913;-73
2023/03/03 12:55:27;;;;;;;;;;;;;;;;;;5094029;28;20015;-74
2023/03/03 12:57:53;;;;;;;;;;;;;;;;;;5093864;28;19915;-73
2023/03/03 13:00:19;;;;;;;;;;;;;;;;;;5093335;28;20426;-73
2023/03/03 13:02:45;;;;;;;;;;;;;;;;;;5093946;28;19961;-74
2023/03/03 13:05:11;;;;;;;;;;;;;;;;;;5093875;28;19908;-74
2023/03/03 13:07:37;;;;;;;;;;;;;;;;;;5094015;28;19908;-73
2023/03/03 13:10:03;;;;;;;;;;;;;;;;;;5093846;28;19912;-73
2023/03/03 13:12:29;;;;;;;;;;;;;;;;;;5093891;28;19923;-74
2023/03/03 13:14:55;;;;;;;;;;;;;;;;;;5093766;28;19916;-74
2023/03/03 13:17:21;;;;;;;;;;;;;;;;;;5093766;28;19957;-74
2023/03/03 13:19:47;;;;;;;;;;;;;;;;;;5093778;28;20280;-73
2023/03/03 13:22:13;;;;;;;;;;;;;;;;;;5093785;28;19912;-74
2023/03/03 13:24:40;;;;;;;;;;;;;;;;;;5093682;28;20002;-74
2023/03/03 13:27:06;;;;;;;;;;;;;;;;;;5094044;28;19909;-73
2023/03/03 13:29:32;;;;;;;;;;;;;;;;;;5093749;28;19909;-74
2023/03/03 13:31:58;;;;;;;;;;;;;;;;;;5093655;28;19917;-73
2023/03/03 13:34:24;;;;;;;;;;;;;;;;;;5093647;28;20283;-74
2023/03/03 13:36:51;;;;;;;;;;;;;;;;;;5093634;28;19908;-73
2023/03/03 13:39:17;;;;;;;;;;;;;;;;;;5093538;28;19912;-73
2023/03/03 13:41:43;;;;;;;;;;;;;;;;;;5093093;28;20006;-73
2023/03/03 13:44:09;;;;;;;;;;;;;;;;;;5093543;28;20380;-73
2023/03/03 13:46:35;;;;;;;;;;;;;;;;;;5093516;28;20314;-74
2023/03/03 13:49:01;;;;;;;;;;;;;;;;;;5094020;28;19908;-74
2023/03/03 13:51:27;;;;;;;;;;;;;;;;;;5093447;28;19908;-74
2023/03/03 13:53:53;;;;;;;;;;;;;;;;;;5093392;28;19908;-74
2023/03/03 13:56:18;;;;;;;;;;;;;;;;;;5093338;28;19908;-73
2023/03/03 13:58:44;;;;;;;;;;;;;;;;;;5093360;28;19943;-73
2023/03/03 14:01:10;;;;;;;;;;;;;;;;;;5093507;28;19937;-74
2023/03/03 14:03:36;;;;;;;;;;;;;;;;;;5093335;28;20269;-73
2023/03/03 14:06:02;;;;;;;;;;;;;;;;;;5093552;28;19912;-73
2023/03/03 14:08:28;;;;;;;;;;;;;;;;;;5093324;28;19947;-73
2023/03/03 14:10:54;;;;;;;;;;;;;;;;;;5093277;28;19935;-73
2023/03/03 14:13:20;;;;;;;;;;;;;;;;;;5097049;28;19908;-74
2023/03/03 14:15:46;;;;;;;;;;;;;;;;;;5097112;28;20008;-74
2023/03/03 14:18:12;;;;;;;;;;;;;;;;;;5096948;28;19919;-72
2023/03/03 14:20:38;;;;;;;;;;;;;;;;;;5078898;28;19919;-73
2023/03/03 14:23:04;;;;;;;;;;;;;;;;;;5096852;28;19908;-73
2023/03/03 14:25:30;;;;;;;;;;;;;;;;;;5097087;28;20387;-73
2023/03/03 14:27:56;;;;;;;;;;;;;;;;;;5096744;28;19909;-72
2023/03/03 14:30:22;;;;;;;;;;;;;;;;;;5096663;28;19995;-73
2023/03/03 14:32:48;;;;;;;;;;;;;;;;;;5096696;28;19993;-74
2023/03/03 14:35:14;;;;;;;;;;;;;;;;;;5096631;28;19978;-73
2023/03/03 14:37:40;;;;;;;;;;;;;;;;;;5096696;28;20326;-74
2023/03/03 14:40:06;;;;;;;;;;;;;;;;;;5096294;28;20380;-74
2023/03/03 14:42:32;;;;;;;;;;;;;;;;;;5077936;28;19962;-72
2023/03/03 14:44:58;;;;;;;;;;;;;;;;;;5096581;28;19914;-73
2023/03/03 14:47:25;;;;;;;;;;;;;;;;;;5078244;28;20006;-73
2023/03/03 14:49:51;;;;;;;;;;;;;;;;;;5096302;28;19947;-73
2023/03/03 14:52:17;;;;;;;;;;;;;;;;;;5096295;28;19908;-73
2023/03/03 14:54:44;;;;;;;;;;;;;;;;;;5096516;28;19908;-73
2023/03/03 14:57:10;;;;;;;;;;;;;;;;;;5096108;28;19908;-73
2023/03/03 14:59:36;;;;;;;;;;;;;;;;;;5096206;28;19908;-73
2023/03/03 15:02:02;;;;;;;;;;;;;;;;;;5096267;28;19912;-73
2023/03/03 15:04:29;;;;;;;;;;;;;;;;;;5096075;28;19932;-73
2023/03/03 15:06:56;;;;;;;;;;;;;;;;;;5096139;28;19908;-73
2023/03/03 15:09:22;;;;;;;;;;;;;;;;;;5095905;28;20392;-73
2023/03/03 15:11:48;;;;;;;;;;;;;;;;;;5096043;28;19922;-72
2023/03/03 15:14:14;;;;;;;;;;;;;;;;;;5095833;28;20113;-73
2023/03/03 15:16:43;;;;;;;;;;;;;;;;;;5096048;28;19958;-73
2023/03/03 15:19:10;;;;;;;;;;;;;;;;;;5096115;28;19914;-73
2023/03/03 15:21:36;;;;;;;;;;;;;;;;;;5095714;28;19912;-73
2023/03/03 15:24:02;;;;;;;;;;;;;;;;;;5094757;28;19919;-73
2023/03/03 15:26:28;;;;;;;;;;;;;;;;;;5095645;28;19908;-74
2023/03/03 15:28:54;;;;;;;;;;;;;;;;;;5095587;28;20351;-72
2023/03/03 15:31:20;;;;;;;;;;;;;;;;;;5095452;28;20288;-72
2023/03/03 15:33:46;;;;;;;;;;;;;;;;;;5095602;28;19991;-74
2023/03/03 15:36:12;;;;;;;;;;;;;;;;;;5095483;28;19959;-75
2023/03/03 15:38:38;;;;;;;;;;;;;;;;;;5095414;28;19908;-73
2023/03/03 15:41:03;;;;;;;;;;;;;;;;;;5095268;28;20391;-74
2023/03/03 15:43:29;;;;;;;;;;;;;;;;;;5095509;28;19915;-72
2023/03/03 15:45:56;;;;;;;;;;;;;;;;;;5095244;28;19915;-74
2023/03/03 15:48:22;;;;;;;;;;;;;;;;;;5095407;28;19957;-74
2023/03/03 15:50:49;;;;;;;;;;;;;;;;;;5077046;28;19974;-74
2023/03/03 15:53:15;;;;;;;;;;;;;;;;;;5095107;28;20341;-74
2023/03/03 15:55:40;;;;;;;;;;;;;;;;;;5095075;28;19946;-75
2023/03/03 15:58:06;;;;;;;;;;;;;;;;;;5094937;28;19908;-73
2023/03/03 16:00:33;;;;;;;;;;;;;;;;;;5094991;28;19925;-74
2023/03/03 16:03:01;;;;;;;;;;;;;;;;;;5094924;28;19951;-74
2023/03/03 16:05:26;;;;;;;;;;;;;;;;;;5094893;28;19908;-74
2023/03/03 16:07:52;;;;;;;;;;;;;;;;;;5094997;28;19908;-75
2023/03/03 16:10:18;;;;;;;;;;;;;;;;;;5094816;28;19920;-75
2023/03/03 16:12:44;;;;;;;;;;;;;;;;;;5094660;28;20381;-75
2023/03/03 16:15:10;;;;;;;;;;;;;;;;;;5094944;28;19908;-75
2023/03/03 16:17:36;;;;;;;;;;;;;;;;;;5094690;28;20372;-74
2023/03/03 16:20:02;;;;;;;;;;;;;;;;;;5094640;28;19919;-74
2023/03/03 16:22:28;;;;;;;;;;;;;;;;;;5094525;28;20030;-74
2023/03/03 16:24:54;;;;;;;;;;;;;;;;;;5094935;28;19995;-74
2023/03/03 16:27:20;;;;;;;;;;;;;;;;;;5076187;28;20422;-75
2023/03/03 16:29:46;;;;;;;;;;;;;;;;;;5094441;28;19908;-74
2023/03/03 16:32:12;;;;;;;;;;;;;;;;;;5094526;28;19918;-74
2023/03/03 16:34:38;;;;;;;;;;;;;;;;;;5094222;28;20003;-73
2023/03/03 16:37:04;;;;;;;;;;;;;;;;;;5075830;28;19951;-73